createdAt,value
2023-11-18T00:00:10.261Z,89.61
2023-11-18T00:01:10.280Z,92.82
2023-11-18T00:02:10.481Z,90.14
2023-11-18T00:03:10.436Z,91.82
2023-11-18T00:04:10.525Z,92.13
2023-11-18T00:05:10.496Z,88.60
2023-11-18T00:06:10.543Z,90.54
2023-11-18T00:07:10.587Z,89.86
2023-11-18T00:08:10.657Z,91.34
2023-11-18T00:09:10.706Z,90.29
2023-11-18T00:10:10.744Z,90.51
2023-11-18T00:11:10.785Z,92.07
2023-11-18T00:12:10.859Z,88.69
2023-11-18T00:13:10.888Z,90.03
2023-11-18T00:14:10.958Z,89.95
2023-11-18T00:15:10.984Z,92.18
2023-11-18T00:16:11.114Z,90.18
2023-11-18T00:17:11.213Z,90.37
2023-11-18T00:18:11.196Z,89.37
2023-11-18T00:19:11.185Z,89.77
2023-11-18T00:20:11.272Z,88.80
2023-11-18T00:21:11.287Z,91.30
2023-11-18T00:22:11.341Z,86.70
2023-11-18T00:23:11.380Z,89.54
2023-11-18T00:24:11.445Z,88.46
2023-11-18T00:25:11.496Z,89.94
2023-11-18T00:26:11.586Z,88.81
2023-11-18T00:27:11.603Z,88.27
2023-11-18T00:28:11.659Z,88.82
2023-11-18T00:29:11.683Z,89.13
2023-11-18T00:30:11.746Z,89.84
2023-11-18T00:31:11.877Z,87.26
2023-11-18T00:32:12.091Z,89.31
2023-11-18T00:33:11.999Z,89.16
2023-11-18T00:34:11.956Z,89.16
2023-11-18T00:35:12.128Z,85.55
2023-11-18T00:36:12.054Z,87.86
2023-11-18T00:37:17.108Z,90.42
2023-11-18T00:38:12.094Z,90.47
2023-11-18T00:39:12.069Z,89.80
2023-11-18T00:40:12.074Z,89.59
2023-11-18T00:41:12.086Z,89.02
2023-11-18T00:42:12.045Z,88.33
2023-11-18T00:43:12.038Z,89.19
2023-11-18T00:44:12.032Z,87.43
2023-11-18T00:45:12.027Z,87.58
2023-11-18T00:46:12.043Z,85.17
2023-11-18T00:47:12.137Z,87.82
2023-11-18T00:48:12.057Z,86.96
2023-11-18T00:49:12.016Z,85.85
2023-11-18T00:50:12.189Z,85.67
2023-11-18T00:51:11.963Z,88.99
2023-11-18T00:52:11.973Z,86.21
2023-11-18T00:53:11.955Z,86.98
2023-11-18T00:54:11.952Z,86.45
2023-11-18T00:55:11.967Z,86.93
2023-11-18T00:56:11.938Z,84.94
2023-11-18T00:57:11.912Z,85.77
2023-11-18T00:58:16.933Z,85.27
2023-11-18T00:59:11.938Z,85.42
2023-11-18T01:00:11.901Z,85.74
2023-11-18T01:01:11.963Z,85.85
2023-11-18T01:02:12.260Z,87.46
2023-11-18T01:03:12.003Z,87.60
2023-11-18T01:04:11.859Z,85.83
2023-11-18T01:05:11.883Z,87.07
2023-11-18T01:06:11.834Z,84.44
2023-11-18T01:07:11.845Z,84.63
2023-11-18T01:08:11.825Z,84.85
2023-11-18T01:09:11.817Z,86.02
2023-11-18T01:10:11.811Z,84.91
2023-11-18T01:11:11.790Z,83.89
2023-11-18T01:12:11.806Z,85.97
2023-11-18T01:13:11.765Z,84.19
2023-11-18T01:14:11.829Z,83.88
2023-11-18T01:15:11.826Z,84.53
2023-11-18T01:16:11.754Z,84.94
2023-11-18T01:17:11.740Z,85.34
2023-11-18T01:18:11.798Z,84.10
2023-11-18T01:19:11.748Z,84.27
2023-11-18T01:20:11.734Z,83.94
2023-11-18T01:21:11.722Z,82.06
2023-11-18T01:22:11.702Z,85.33
2023-11-18T01:23:11.696Z,84.98
2023-11-18T01:24:11.709Z,83.91
2023-11-18T01:25:11.684Z,83.84
2023-11-18T01:26:11.660Z,83.64
2023-11-18T01:27:11.659Z,84.96
2023-11-18T01:28:11.642Z,84.58
2023-11-18T01:29:11.638Z,82.54
2023-11-18T01:30:11.654Z,82.10
2023-11-18T01:31:11.661Z,83.43
2023-11-18T01:32:11.710Z,83.46
2023-11-18T01:33:11.703Z,83.15
2023-11-18T01:34:11.611Z,82.55
2023-11-18T01:35:11.668Z,83.16
2023-11-18T01:36:11.586Z,83.12
2023-11-18T01:37:11.559Z,82.21
2023-11-18T01:38:11.562Z,82.57
2023-11-18T01:39:11.552Z,83.13
2023-11-18T01:40:11.555Z,81.41
2023-11-18T01:41:11.528Z,83.66
2023-11-18T01:42:11.524Z,82.06
2023-11-18T01:43:11.505Z,81.10
2023-11-18T01:44:11.510Z,83.01
2023-11-18T01:45:11.518Z,82.56
2023-11-18T01:46:11.906Z,81.59
2023-11-18T01:47:11.494Z,80.72
2023-11-18T01:48:11.490Z,81.13
2023-11-18T01:49:11.458Z,83.05
2023-11-18T01:50:21.502Z,82.46
2023-11-18T01:51:11.441Z,82.66
2023-11-18T01:52:11.449Z,82.87
2023-11-18T01:53:11.437Z,83.49
2023-11-18T01:54:11.428Z,83.56
2023-11-18T01:55:11.406Z,83.20
2023-11-18T01:56:11.447Z,82.37
2023-11-18T01:57:11.396Z,82.02
2023-11-18T01:58:11.398Z,79.89
2023-11-18T01:59:11.360Z,81.82
2023-11-18T02:00:11.370Z,81.84
2023-11-18T02:01:11.416Z,82.16
2023-11-18T02:02:11.376Z,83.75
2023-11-18T02:03:11.487Z,80.58
2023-11-18T02:04:11.424Z,80.36
2023-11-18T02:05:11.353Z,80.23
2023-11-18T02:06:11.334Z,81.30
2023-11-18T02:07:11.301Z,82.93
2023-11-18T02:08:11.354Z,79.87
2023-11-18T02:09:11.286Z,81.01
2023-11-18T02:10:11.269Z,80.28
2023-11-18T02:11:11.278Z,80.28
2023-11-18T02:12:11.265Z,80.44
2023-11-18T02:13:11.244Z,79.16
2023-11-18T02:14:11.272Z,78.56
2023-11-18T02:15:11.506Z,79.25
2023-11-18T02:16:16.248Z,80.17
2023-11-18T02:17:11.244Z,80.22
2023-11-18T02:18:11.349Z,80.02
2023-11-18T02:19:11.184Z,79.81
2023-11-18T02:20:11.210Z,79.24
2023-11-18T02:21:11.180Z,80.22
2023-11-18T02:22:11.222Z,78.84
2023-11-18T02:23:11.147Z,80.58
2023-11-18T02:24:11.169Z,76.45
2023-11-18T02:25:11.143Z,77.34
2023-11-18T02:26:11.221Z,80.39
2023-11-18T02:27:11.129Z,78.31
2023-11-18T02:28:11.120Z,77.10
2023-11-18T02:29:11.153Z,78.15
2023-11-18T02:30:11.105Z,79.47
2023-11-18T02:31:11.169Z,77.36
2023-11-18T02:32:11.214Z,78.92
2023-11-18T02:33:11.290Z,78.41
2023-11-18T02:34:11.295Z,80.89
2023-11-18T02:35:12.152Z,79.00
2023-11-18T02:36:11.342Z,78.14
2023-11-18T02:37:11.344Z,77.07
2023-11-18T02:38:11.382Z,79.66
2023-11-18T02:39:11.313Z,77.42
2023-11-18T02:40:11.307Z,75.30
2023-11-18T02:41:11.333Z,77.34
2023-11-18T02:42:11.298Z,76.49
2023-11-18T02:43:11.278Z,77.76
2023-11-18T02:44:11.557Z,75.09
2023-11-18T02:45:11.369Z,77.96
2023-11-18T02:46:11.444Z,79.94
2023-11-18T02:47:11.497Z,76.89
2023-11-18T02:48:11.623Z,79.47
2023-11-18T02:49:11.584Z,78.24
2023-11-18T02:50:11.716Z,75.88
2023-11-18T02:51:11.681Z,77.98
2023-11-18T02:52:11.766Z,77.79
2023-11-18T02:53:11.855Z,75.15
2023-11-18T02:54:11.945Z,77.11
2023-11-18T02:55:11.881Z,75.76
2023-11-18T02:56:11.970Z,76.00
2023-11-18T02:57:11.989Z,77.12
2023-11-18T02:58:12.057Z,75.75
2023-11-18T02:59:12.098Z,74.79
2023-11-18T03:00:12.120Z,78.35
2023-11-18T03:01:12.227Z,75.98
2023-11-18T03:02:12.373Z,76.70
2023-11-18T03:03:12.389Z,76.36
2023-11-18T03:04:12.374Z,80.03
2023-11-18T03:05:12.396Z,76.07
2023-11-18T03:06:12.441Z,75.06
2023-11-18T03:07:12.496Z,75.66
2023-11-18T03:08:12.640Z,77.99
2023-11-18T03:09:12.584Z,76.70
2023-11-18T03:10:12.629Z,75.71
2023-11-18T03:11:12.722Z,72.67
2023-11-18T03:12:12.732Z,77.24
2023-11-18T03:13:12.819Z,74.43
2023-11-18T03:14:12.905Z,74.76
2023-11-18T03:15:13.047Z,73.91
2023-11-18T03:16:12.974Z,73.86
2023-11-18T03:17:13.023Z,74.93
2023-11-18T03:18:13.093Z,73.58
2023-11-18T03:19:13.084Z,75.88
2023-11-18T03:20:13.232Z,76.09
2023-11-18T03:21:13.219Z,75.28
2023-11-18T03:22:13.239Z,73.94
2023-11-18T03:23:13.340Z,75.91
2023-11-18T03:24:13.332Z,75.18
2023-11-18T03:25:13.406Z,74.16
2023-11-18T03:26:13.421Z,75.92
2023-11-18T03:27:13.478Z,74.76
2023-11-18T03:28:13.548Z,73.09
2023-11-18T03:29:13.589Z,75.14
2023-11-18T03:30:13.654Z,74.74
2023-11-18T03:31:13.687Z,73.56
2023-11-18T03:32:13.730Z,72.73
2023-11-18T03:33:13.890Z,76.31
2023-11-18T03:34:13.838Z,72.93
2023-11-18T03:35:13.980Z,72.53
2023-11-18T03:36:13.968Z,74.36
2023-11-18T03:37:14.019Z,72.93
2023-11-18T03:38:14.037Z,72.63
2023-11-18T03:39:14.086Z,72.64
2023-11-18T03:40:14.144Z,76.66
2023-11-18T03:41:14.320Z,74.65
2023-11-18T03:42:14.229Z,75.21
2023-11-18T03:43:24.311Z,75.72
2023-11-18T03:44:14.280Z,75.86
2023-11-18T03:45:14.282Z,75.32
2023-11-18T03:46:14.330Z,75.74
2023-11-18T03:47:14.281Z,74.71
2023-11-18T03:48:14.230Z,74.92
2023-11-18T03:49:14.234Z,74.66
2023-11-18T03:50:14.337Z,73.20
2023-11-18T03:51:14.212Z,72.80
2023-11-18T03:52:14.221Z,72.46
2023-11-18T03:53:14.276Z,73.56
2023-11-18T03:54:14.190Z,72.28
2023-11-18T03:55:14.180Z,71.66
2023-11-18T03:56:14.166Z,73.35
2023-11-18T03:57:14.204Z,72.51
2023-11-18T03:58:14.164Z,74.90
2023-11-18T03:59:14.177Z,73.80
2023-11-18T04:00:14.157Z,75.29
2023-11-18T04:01:14.181Z,73.65
2023-11-18T04:02:14.166Z,70.62
2023-11-18T04:03:14.177Z,71.14
2023-11-18T04:04:14.133Z,72.74
2023-11-18T04:05:14.159Z,74.04
2023-11-18T04:06:14.075Z,68.48
2023-11-18T04:07:14.084Z,70.64
2023-11-18T04:08:14.095Z,72.23
2023-11-18T04:09:14.103Z,69.96
2023-11-18T04:10:14.066Z,73.70
2023-11-18T04:11:14.066Z,73.03
2023-11-18T04:12:14.051Z,71.91
2023-11-18T04:13:14.030Z,71.82
2023-11-18T04:14:14.027Z,70.48
2023-11-18T04:15:14.014Z,68.33
2023-11-18T04:16:14.026Z,75.01
2023-11-18T04:17:14.093Z,70.70
2023-11-18T04:18:14.056Z,68.47
2023-11-18T04:19:14.000Z,68.18
2023-11-18T04:20:14.036Z,67.91
2023-11-18T04:21:14.041Z,70.06
2023-11-18T04:22:13.941Z,68.46
2023-11-18T04:23:13.980Z,67.66
2023-11-18T04:24:13.925Z,71.80
2023-11-18T04:25:13.951Z,69.64
2023-11-18T04:26:13.921Z,68.75
2023-11-18T04:27:13.908Z,71.08
2023-11-18T04:28:13.881Z,71.21
2023-11-18T04:29:13.896Z,69.47
2023-11-18T04:30:13.987Z,69.90
2023-11-18T04:31:13.894Z,67.19
2023-11-18T04:32:13.877Z,71.00
2023-11-18T04:33:13.857Z,67.81
2023-11-18T04:34:13.826Z,70.08
2023-11-18T04:35:14.437Z,73.06
2023-11-18T04:36:13.828Z,70.92
2023-11-18T04:37:13.806Z,69.13
2023-11-18T04:38:13.828Z,69.85
2023-11-18T04:39:13.786Z,72.18
2023-11-18T04:40:13.821Z,69.74
2023-11-18T04:41:13.806Z,71.41
2023-11-18T04:42:13.765Z,68.57
2023-11-18T04:43:13.782Z,70.90
2023-11-18T04:44:13.797Z,68.01
2023-11-18T04:45:13.753Z,69.12
2023-11-18T04:46:13.759Z,69.71
2023-11-18T04:47:13.789Z,72.02
2023-11-18T04:48:13.811Z,68.54
2023-11-18T04:49:13.813Z,68.99
2023-11-18T04:50:13.784Z,71.77
2023-11-18T04:51:13.744Z,68.27
2023-11-18T04:52:13.666Z,68.78
2023-11-18T04:53:13.730Z,69.48
2023-11-18T04:54:13.675Z,67.61
2023-11-18T04:55:13.649Z,68.14
2023-11-18T04:56:13.655Z,68.87
2023-11-18T04:57:13.634Z,67.30
2023-11-18T04:58:13.616Z,72.10
2023-11-18T04:59:13.622Z,68.10
2023-11-18T05:00:13.605Z,69.05
2023-11-18T05:01:13.618Z,70.07
2023-11-18T05:02:13.673Z,70.27
2023-11-18T05:03:13.604Z,70.36
2023-11-18T05:04:13.680Z,69.14
2023-11-18T05:05:13.642Z,67.26
2023-11-18T05:06:13.552Z,66.93
2023-11-18T05:07:13.560Z,67.51
2023-11-18T05:08:13.635Z,67.08
2023-11-18T05:09:13.549Z,66.65
2023-11-18T05:10:13.509Z,67.96
2023-11-18T05:11:13.559Z,69.16
2023-11-18T05:12:13.509Z,70.69
2023-11-18T05:13:13.515Z,67.96
2023-11-18T05:14:13.505Z,66.65
2023-11-18T05:15:13.480Z,72.17
2023-11-18T05:16:13.449Z,64.70
2023-11-18T05:17:13.582Z,68.01
2023-11-18T05:18:13.538Z,70.74
2023-11-18T05:19:13.442Z,65.59
2023-11-18T05:20:13.483Z,66.07
2023-11-18T05:21:13.431Z,64.30
2023-11-18T05:22:13.420Z,68.39
2023-11-18T05:23:13.581Z,66.82
2023-11-18T05:24:13.398Z,67.16
2023-11-18T05:25:13.393Z,68.65
2023-11-18T05:26:13.453Z,67.06
2023-11-18T05:27:13.390Z,62.37
2023-11-18T05:28:13.357Z,69.61
2023-11-18T05:29:13.366Z,65.44
2023-11-18T05:30:13.364Z,65.57
2023-11-18T05:31:13.388Z,66.72
2023-11-18T05:32:13.373Z,66.43
2023-11-18T05:33:13.378Z,65.44
2023-11-18T05:34:13.296Z,68.64
2023-11-18T05:35:13.385Z,67.75
2023-11-18T05:36:13.285Z,66.30
2023-11-18T05:37:13.287Z,63.14
2023-11-18T05:38:13.291Z,67.68
2023-11-18T05:39:13.275Z,61.99
2023-11-18T05:40:13.262Z,64.63
2023-11-18T05:41:13.259Z,64.12
2023-11-18T05:42:13.227Z,64.34
2023-11-18T05:43:13.220Z,69.63
2023-11-18T05:44:13.258Z,65.36
2023-11-18T05:45:13.226Z,63.56
2023-11-18T05:46:13.216Z,68.34
2023-11-18T05:47:13.227Z,67.63
2023-11-18T05:48:13.194Z,66.79
2023-11-18T05:49:13.202Z,62.57
2023-11-18T05:50:13.248Z,67.27
2023-11-18T05:51:13.173Z,62.08
2023-11-18T05:52:13.145Z,68.20
2023-11-18T05:53:13.168Z,61.39
2023-11-18T05:54:13.126Z,66.44
2023-11-18T05:55:13.134Z,66.67
2023-11-18T05:56:13.137Z,64.86
2023-11-18T05:57:13.121Z,65.79
2023-11-18T05:58:13.090Z,64.21
2023-11-18T05:59:13.127Z,67.66
2023-11-18T06:00:13.083Z,64.09
2023-11-18T06:01:13.071Z,61.12
2023-11-18T06:02:13.111Z,64.09
2023-11-18T06:03:13.164Z,63.92
2023-11-18T06:04:13.117Z,61.60
2023-11-18T06:05:13.119Z,65.39
2023-11-18T06:06:13.066Z,66.24
2023-11-18T06:07:13.013Z,67.98
2023-11-18T06:08:13.024Z,69.03
2023-11-18T06:09:13.024Z,65.22
2023-11-18T06:10:12.999Z,61.52
2023-11-18T06:11:13.008Z,65.62
2023-11-18T06:12:12.965Z,64.73
2023-11-18T06:13:12.993Z,67.36
2023-11-18T06:14:12.981Z,63.96
2023-11-18T06:15:12.963Z,67.66
2023-11-18T06:16:12.964Z,63.23
2023-11-18T06:17:13.019Z,64.76
2023-11-18T06:18:12.927Z,63.20
2023-11-18T06:19:12.939Z,63.53
2023-11-18T06:20:12.942Z,63.41
2023-11-18T06:21:12.898Z,64.46
2023-11-18T06:22:12.904Z,64.46
2023-11-18T06:23:12.946Z,62.95
2023-11-18T06:24:12.864Z,63.69
2023-11-18T06:25:12.885Z,61.28
2023-11-18T06:26:12.916Z,63.77
2023-11-18T06:27:12.844Z,59.81
2023-11-18T06:28:12.837Z,59.60
2023-11-18T06:29:16.027Z,68.98
2023-11-18T06:30:12.826Z,66.26
2023-11-18T06:31:12.989Z,61.46
2023-11-18T06:32:12.886Z,60.05
2023-11-18T06:33:12.911Z,65.61
2023-11-18T06:34:12.774Z,62.11
2023-11-18T06:35:12.813Z,66.42
2023-11-18T06:36:12.761Z,63.54
2023-11-18T06:37:12.768Z,67.84
2023-11-18T06:38:12.777Z,59.96
2023-11-18T06:39:12.745Z,65.86
2023-11-18T06:40:12.733Z,62.30
2023-11-18T06:41:12.746Z,61.82
2023-11-18T06:42:12.907Z,64.21
2023-11-18T06:43:12.705Z,64.33
2023-11-18T06:44:12.719Z,62.12
2023-11-18T06:45:12.682Z,59.66
2023-11-18T06:46:14.105Z,60.96
2023-11-18T06:47:12.772Z,63.04
2023-11-18T06:48:12.758Z,64.53
2023-11-18T06:49:12.727Z,61.66
2023-11-18T06:50:12.672Z,58.30
2023-11-18T06:51:12.625Z,59.92
2023-11-18T06:52:12.618Z,60.55
2023-11-18T06:53:12.707Z,63.02
2023-11-18T06:54:12.604Z,62.72
2023-11-18T06:55:12.605Z,60.59
2023-11-18T06:56:12.617Z,59.24
2023-11-18T06:57:12.594Z,62.93
2023-11-18T06:58:12.568Z,64.57
2023-11-18T06:59:12.650Z,63.75
2023-11-18T07:00:12.681Z,57.28
2023-11-18T07:01:12.592Z,63.24
2023-11-18T07:02:12.549Z,57.80
2023-11-18T07:03:12.556Z,59.14
2023-11-18T07:04:12.503Z,62.03
2023-11-18T07:05:12.539Z,61.63
2023-11-18T07:06:12.504Z,65.28
2023-11-18T07:07:12.489Z,62.26
2023-11-18T07:08:12.530Z,61.51
2023-11-18T07:09:12.475Z,61.46
2023-11-18T07:10:12.476Z,57.83
2023-11-18T07:11:12.486Z,62.05
2023-11-18T07:12:12.436Z,61.54
2023-11-18T07:13:12.490Z,59.59
2023-11-18T07:14:12.592Z,60.51
2023-11-18T07:15:12.442Z,63.78
2023-11-18T07:16:12.411Z,59.53
2023-11-18T07:17:12.422Z,59.85
2023-11-18T07:18:12.455Z,59.74
2023-11-18T07:19:12.380Z,60.21
2023-11-18T07:20:12.471Z,59.39
2023-11-18T07:21:12.369Z,64.30
2023-11-18T07:22:12.353Z,58.93
2023-11-18T07:23:12.408Z,58.05
2023-11-18T07:24:12.386Z,58.41
2023-11-18T07:25:12.325Z,59.27
2023-11-18T07:26:12.398Z,62.16
2023-11-18T07:27:12.311Z,57.62
2023-11-18T07:28:12.400Z,60.19
2023-11-18T07:29:12.320Z,63.98
2023-11-18T07:30:12.309Z,58.47
2023-11-18T07:31:12.321Z,59.70
2023-11-18T07:32:12.327Z,62.97
2023-11-18T07:33:12.317Z,64.84
2023-11-18T07:34:12.286Z,55.84
2023-11-18T07:35:12.371Z,63.77
2023-11-18T07:36:12.232Z,63.51
2023-11-18T07:37:12.210Z,56.35
2023-11-18T07:38:12.267Z,59.11
2023-11-18T07:39:12.205Z,63.46
2023-11-18T07:40:12.193Z,61.90
2023-11-18T07:41:12.248Z,60.99
2023-11-18T07:42:12.184Z,63.81
2023-11-18T07:43:12.183Z,57.99
2023-11-18T07:44:12.303Z,58.55
2023-11-18T07:45:12.207Z,61.29
2023-11-18T07:46:12.198Z,57.89
2023-11-18T07:47:12.178Z,58.20
2023-11-18T07:48:12.139Z,59.21
2023-11-18T07:49:12.748Z,62.11
2023-11-18T07:50:12.176Z,58.06
2023-11-18T07:51:12.135Z,58.75
2023-11-18T07:52:12.122Z,61.97
2023-11-18T07:53:12.096Z,57.74
2023-11-18T07:54:12.092Z,61.04
2023-11-18T07:55:12.067Z,60.29
2023-11-18T07:56:12.097Z,57.76
2023-11-18T07:57:12.130Z,60.60
2023-11-18T07:58:12.168Z,62.67
2023-11-18T07:59:12.083Z,60.21
2023-11-18T08:00:12.016Z,60.02
2023-11-18T08:01:12.035Z,60.10
2023-11-18T08:02:12.058Z,61.57
2023-11-18T08:03:12.080Z,56.27
2023-11-18T08:04:11.992Z,58.64
2023-11-18T08:05:12.001Z,58.95
2023-11-18T08:06:11.963Z,62.91
2023-11-18T08:07:11.956Z,53.51
2023-11-18T08:08:11.986Z,57.66
2023-11-18T08:09:11.943Z,62.03
2023-11-18T08:10:11.936Z,57.83
2023-11-18T08:11:11.943Z,62.17
2023-11-18T08:12:11.914Z,59.78
2023-11-18T08:13:11.958Z,58.54
2023-11-18T08:14:11.998Z,56.07
2023-11-18T08:15:11.866Z,59.53
2023-11-18T08:16:12.021Z,62.86
2023-11-18T08:17:11.979Z,55.98
2023-11-18T08:18:12.016Z,58.18
2023-11-18T08:19:11.851Z,54.09
2023-11-18T08:20:11.861Z,61.31
2023-11-18T08:21:11.827Z,57.65
2023-11-18T08:22:11.813Z,58.46
2023-11-18T08:23:11.849Z,57.67
2023-11-18T08:24:11.806Z,58.05
2023-11-18T08:25:11.778Z,57.80
2023-11-18T08:26:21.848Z,55.49
2023-11-18T08:27:11.768Z,55.82
2023-11-18T08:28:11.765Z,55.96
2023-11-18T08:29:11.789Z,56.00
2023-11-18T08:30:11.768Z,57.77
2023-11-18T08:31:11.761Z,56.99
2023-11-18T08:32:11.771Z,56.52
2023-11-18T08:33:11.761Z,60.52
2023-11-18T08:34:11.743Z,54.84
2023-11-18T08:35:11.756Z,55.34
2023-11-18T08:36:11.702Z,60.39
2023-11-18T08:37:11.676Z,56.95
2023-11-18T08:38:11.718Z,58.13
2023-11-18T08:39:12.464Z,58.85
2023-11-18T08:40:11.657Z,57.66
2023-11-18T08:41:11.685Z,57.60
2023-11-18T08:42:16.654Z,55.86
2023-11-18T08:43:11.628Z,56.03
2023-11-18T08:44:21.971Z,56.87
2023-11-18T08:45:12.610Z,55.96
2023-11-18T08:46:11.660Z,56.17
2023-11-18T08:47:11.599Z,57.92
2023-11-18T08:48:11.674Z,57.98
2023-11-18T08:49:11.580Z,57.24
2023-11-18T08:50:11.602Z,57.38
2023-11-18T08:51:14.169Z,58.36
2023-11-18T08:52:11.803Z,59.59
2023-11-18T08:53:11.903Z,58.49
2023-11-18T08:54:11.791Z,55.96
2023-11-18T08:55:11.772Z,60.11
2023-11-18T08:56:11.793Z,57.76
2023-11-18T08:57:11.746Z,56.25
2023-11-18T08:58:11.748Z,55.63
2023-11-18T08:59:11.842Z,59.27
2023-11-18T09:00:11.810Z,59.97
2023-11-18T09:01:11.945Z,57.50
2023-11-18T09:02:11.987Z,55.25
2023-11-18T09:03:12.049Z,60.03
2023-11-18T09:04:12.076Z,53.90
2023-11-18T09:05:12.119Z,54.19
2023-11-18T09:06:12.104Z,57.52
2023-11-18T09:07:12.155Z,56.31
2023-11-18T09:08:12.265Z,56.75
2023-11-18T09:09:12.311Z,57.02
2023-11-18T09:10:12.304Z,51.65
2023-11-18T09:11:12.381Z,57.21
2023-11-18T09:12:12.405Z,59.45
2023-11-18T09:13:12.460Z,55.40
2023-11-18T09:14:12.528Z,54.37
2023-11-18T09:15:12.544Z,57.75
2023-11-18T09:16:12.616Z,53.41
2023-11-18T09:17:12.672Z,56.24
2023-11-18T09:18:12.804Z,56.31
2023-11-18T09:19:12.742Z,54.34
2023-11-18T09:20:12.842Z,58.69
2023-11-18T09:21:12.853Z,56.61
2023-11-18T09:22:12.905Z,53.02
2023-11-18T09:23:23.111Z,59.89
2023-11-18T09:24:12.938Z,60.00
2023-11-18T09:25:12.996Z,60.06
2023-11-18T09:26:12.987Z,60.14
2023-11-18T09:27:12.917Z,59.55
2023-11-18T09:28:12.906Z,56.95
2023-11-18T09:29:12.959Z,58.22
2023-11-18T09:30:12.895Z,58.81
2023-11-18T09:31:13.372Z,56.28
2023-11-18T09:32:12.977Z,58.75
2023-11-18T09:33:13.006Z,60.54
2023-11-18T09:34:12.867Z,54.67
2023-11-18T09:35:12.846Z,55.71
2023-11-18T09:36:12.858Z,58.00
2023-11-18T09:37:12.825Z,57.31
2023-11-18T09:38:12.854Z,55.98
2023-11-18T09:39:12.812Z,53.00
2023-11-18T09:40:12.965Z,57.28
2023-11-18T09:41:12.966Z,56.05
2023-11-18T09:42:12.784Z,54.43
2023-11-18T09:43:12.836Z,59.67
2023-11-18T09:44:12.798Z,56.27
2023-11-18T09:45:12.770Z,59.39
2023-11-18T09:46:12.894Z,54.27
2023-11-18T09:47:12.773Z,54.14
2023-11-18T09:48:12.753Z,55.85
2023-11-18T09:49:12.725Z,54.66
2023-11-18T09:50:12.728Z,59.21
2023-11-18T09:51:12.757Z,59.42
2023-11-18T09:52:12.696Z,52.93
2023-11-18T09:53:12.731Z,56.77
2023-11-18T09:54:12.687Z,59.59
2023-11-18T09:55:12.691Z,52.60
2023-11-18T09:56:12.707Z,56.78
2023-11-18T09:57:12.654Z,51.71
2023-11-18T09:58:12.651Z,52.64
2023-11-18T09:59:12.666Z,54.75
2023-11-18T10:00:12.702Z,52.27
2023-11-18T10:01:12.617Z,54.51
2023-11-18T10:02:12.707Z,53.58
2023-11-18T10:03:12.629Z,55.04
2023-11-18T10:04:12.610Z,57.75
2023-11-18T10:05:12.600Z,60.94
2023-11-18T10:06:12.567Z,52.97
2023-11-18T10:07:12.645Z,57.32
2023-11-18T10:08:12.584Z,56.78
2023-11-18T10:09:12.550Z,58.32
2023-11-18T10:10:12.531Z,59.27
2023-11-18T10:11:12.559Z,59.87
2023-11-18T10:12:12.536Z,57.62
2023-11-18T10:13:12.511Z,55.61
2023-11-18T10:14:12.583Z,52.68
2023-11-18T10:15:12.513Z,52.77
2023-11-18T10:16:12.478Z,55.36
2023-11-18T10:17:12.509Z,58.39
2023-11-18T10:18:12.530Z,55.96
2023-11-18T10:19:12.449Z,52.81
2023-11-18T10:20:12.505Z,54.16
2023-11-18T10:21:12.426Z,56.36
2023-11-18T10:22:12.434Z,52.69
2023-11-18T10:23:12.724Z,50.84
2023-11-18T10:24:12.412Z,55.47
2023-11-18T10:25:12.393Z,57.22
2023-11-18T10:26:12.469Z,53.95
2023-11-18T10:27:12.384Z,53.22
2023-11-18T10:28:12.379Z,56.43
2023-11-18T10:29:12.366Z,54.17
2023-11-18T10:30:12.372Z,50.85
2023-11-18T10:31:12.369Z,53.47
2023-11-18T10:32:12.415Z,56.07
2023-11-18T10:33:12.471Z,51.73
2023-11-18T10:34:12.362Z,55.98
2023-11-18T10:35:12.379Z,56.66
2023-11-18T10:36:22.368Z,52.29
2023-11-18T10:37:12.513Z,52.67
2023-11-18T10:38:12.376Z,53.39
2023-11-18T10:39:12.276Z,54.68
2023-11-18T10:40:12.273Z,57.60
2023-11-18T10:41:12.293Z,53.92
2023-11-18T10:42:12.266Z,55.47
2023-11-18T10:43:12.244Z,60.04
2023-11-18T10:44:12.287Z,56.85
2023-11-18T10:45:12.224Z,56.49
2023-11-18T10:46:12.246Z,51.91
2023-11-18T10:47:12.235Z,52.54
2023-11-18T10:48:12.276Z,54.95
2023-11-18T10:49:12.184Z,53.03
2023-11-18T10:50:12.277Z,52.64
2023-11-18T10:51:12.178Z,56.61
2023-11-18T10:52:22.204Z,56.25
2023-11-18T10:53:12.176Z,56.36
2023-11-18T10:54:12.155Z,56.67
2023-11-18T10:55:12.235Z,56.48
2023-11-18T10:56:12.172Z,57.67
2023-11-18T10:57:12.120Z,58.20
2023-11-18T10:58:12.156Z,58.79
2023-11-18T10:59:12.122Z,52.02
2023-11-18T11:00:12.103Z,52.72
2023-11-18T11:01:12.082Z,57.63
2023-11-18T11:02:12.148Z,55.15
2023-11-18T11:03:12.140Z,56.29
2023-11-18T11:04:12.074Z,55.50
2023-11-18T11:05:14.414Z,55.82
2023-11-18T11:06:12.148Z,52.35
2023-11-18T11:07:12.053Z,56.50
2023-11-18T11:08:24.518Z,56.32
2023-11-18T11:09:13.047Z,56.12
2023-11-18T11:10:12.019Z,56.08
2023-11-18T11:11:12.024Z,57.33
2023-11-18T11:12:11.993Z,57.51
2023-11-18T11:13:11.992Z,59.83
2023-11-18T11:14:12.118Z,60.49
2023-11-18T11:15:11.970Z,60.73
2023-11-18T11:16:11.953Z,59.15
2023-11-18T11:17:11.986Z,56.35
2023-11-18T11:18:11.982Z,55.98
2023-11-18T11:19:11.932Z,56.71
2023-11-18T11:20:11.914Z,58.20
2023-11-18T11:21:11.910Z,55.64
2023-11-18T11:22:11.914Z,54.92
2023-11-18T11:23:11.895Z,54.26
2023-11-18T11:24:11.891Z,54.87
2023-11-18T11:25:11.874Z,51.31
2023-11-18T11:26:12.009Z,53.74
2023-11-18T11:27:11.850Z,55.18
2023-11-18T11:28:11.852Z,52.47
2023-11-18T11:29:11.872Z,55.21
2023-11-18T11:30:12.012Z,53.52
2023-11-18T11:31:11.845Z,51.08
2023-11-18T11:32:11.814Z,53.91
2023-11-18T11:33:11.808Z,52.41
2023-11-18T11:34:11.896Z,50.78
2023-11-18T11:35:11.822Z,52.04
2023-11-18T11:36:11.786Z,54.31
2023-11-18T11:37:11.773Z,53.69
2023-11-18T11:38:11.826Z,53.45
2023-11-18T11:39:11.758Z,54.83
2023-11-18T11:40:11.736Z,56.31
2023-11-18T11:41:11.765Z,49.59
2023-11-18T11:42:11.709Z,55.01
2023-11-18T11:43:11.804Z,56.30
2023-11-18T11:44:11.739Z,57.91
2023-11-18T11:45:11.707Z,57.63
2023-11-18T11:46:11.988Z,54.63
2023-11-18T11:47:11.718Z,50.89
2023-11-18T11:48:11.812Z,58.60
2023-11-18T11:49:11.658Z,56.19
2023-11-18T11:50:11.926Z,56.91
2023-11-18T11:51:11.645Z,56.03
2023-11-18T11:52:11.637Z,54.95
2023-11-18T11:53:11.649Z,54.45
2023-11-18T11:54:11.619Z,56.31
2023-11-18T11:55:11.618Z,60.79
2023-11-18T11:56:11.667Z,55.52
2023-11-18T11:57:11.600Z,53.36
2023-11-18T11:58:11.574Z,55.83
2023-11-18T11:59:11.646Z,55.54
2023-11-18T12:00:11.571Z,54.53
2023-11-18T12:01:11.677Z,53.30
2023-11-18T12:02:11.607Z,58.23
2023-11-18T12:03:11.584Z,56.31
2023-11-18T12:04:11.621Z,52.34
2023-11-18T12:05:11.574Z,54.51
2023-11-18T12:06:14.097Z,52.69
2023-11-18T12:07:18.670Z,52.71
2023-11-18T12:08:12.505Z,52.95
2023-11-18T12:09:11.480Z,52.96
2023-11-18T12:10:11.482Z,53.57
2023-11-18T12:11:11.514Z,55.58
2023-11-18T12:12:11.460Z,59.11
2023-11-18T12:13:11.441Z,54.89
2023-11-18T12:14:11.445Z,54.14
2023-11-18T12:15:11.427Z,55.59
2023-11-18T12:16:11.749Z,52.36
2023-11-18T12:17:11.767Z,58.05
2023-11-18T12:18:11.418Z,50.89
2023-11-18T12:19:11.407Z,56.85
2023-11-18T12:20:11.422Z,51.13
2023-11-18T12:21:32.378Z,51.27
2023-11-18T12:22:11.355Z,51.59
2023-11-18T12:23:11.388Z,52.61
2023-11-18T12:24:11.340Z,55.32
2023-11-18T12:25:11.348Z,55.35
2023-11-18T12:26:11.383Z,58.56
2023-11-18T12:27:11.328Z,60.53
2023-11-18T12:28:11.318Z,58.62
2023-11-18T12:29:11.339Z,56.81
2023-11-18T12:30:11.305Z,55.65
2023-11-18T12:31:11.316Z,53.29
2023-11-18T12:32:21.362Z,54.01
2023-11-18T12:33:11.331Z,54.25
2023-11-18T12:34:11.391Z,54.77
2023-11-18T12:35:11.315Z,55.72
2023-11-18T12:36:11.239Z,57.21
2023-11-18T12:37:11.240Z,57.06
2023-11-18T12:38:11.304Z,57.21
2023-11-18T12:39:11.223Z,57.53
2023-11-18T12:40:11.210Z,52.14
2023-11-18T12:41:12.189Z,56.75
2023-11-18T12:42:11.193Z,54.37
2023-11-18T12:43:11.183Z,52.46
2023-11-18T12:44:11.222Z,59.72
2023-11-18T12:45:11.170Z,58.01
2023-11-18T12:46:11.165Z,53.04
2023-11-18T12:47:11.168Z,52.91
2023-11-18T12:48:11.169Z,53.62
2023-11-18T12:49:11.138Z,56.87
2023-11-18T12:50:11.169Z,57.11
2023-11-18T12:51:11.118Z,54.43
2023-11-18T12:52:11.102Z,53.59